createdAt,value
2019-03-29T00:01:35.452Z,100686.40
2019-03-29T00:04:06.315Z,100685.07
2019-03-29T00:06:37.562Z,100685.92
2019-03-29T00:09:08.976Z,100683.39
2019-03-29T00:11:39.836Z,100679.67
2019-03-29T00:14:10.583Z,100679.45
2019-03-29T00:16:41.369Z,100687.25
2019-03-29T00:19:12.128Z,100692.53
2019-03-29T00:21:42.947Z,100693.06
2019-03-29T00:24:14.946Z,100687.75
2019-03-29T00:26:45.908Z,100689.14
2019-03-29T00:29:16.709Z,100687.69
2019-03-29T00:31:47.501Z,100686.83
2019-03-29T00:34:18.434Z,100680.40
2019-03-29T00:36:49.150Z,100672.00
2019-03-29T00:39:19.898Z,100681.22
2019-03-29T00:41:50.971Z,100680.22
2019-03-29T00:44:21.857Z,100676.63
2019-03-29T00:46:52.628Z,100681.13
2019-03-29T00:49:23.420Z,100676.28
2019-03-29T00:51:54.220Z,100667.09
2019-03-29T00:54:25.120Z,100665.83
2019-03-29T00:56:55.857Z,100666.73
2019-03-29T00:59:26.698Z,100666.95
2019-03-29T01:01:58.501Z,100662.98
2019-03-29T01:04:29.335Z,100658.13
2019-03-29T01:07:00.095Z,100656.38
2019-03-29T01:09:31.918Z,100656.45
2019-03-29T01:12:02.870Z,100659.06
2019-03-29T01:14:33.605Z,100659.33
2019-03-29T01:17:04.339Z,100655.52
2019-03-29T01:19:35.359Z,100654.53
2019-03-29T01:22:06.201Z,100653.51
2019-03-29T01:24:36.938Z,100657.80
2019-03-29T01:27:07.697Z,100660.45
2019-03-29T01:29:38.665Z,100653.47
2019-03-29T01:32:09.553Z,100659.58
2019-03-29T01:34:40.308Z,100654.83
2019-03-29T01:37:11.052Z,100653.89
2019-03-29T01:39:43.278Z,100655.56
2019-03-29T01:42:14.099Z,100654.58
2019-03-29T01:44:44.830Z,100644.86
2019-03-29T01:47:15.556Z,100645.23
2019-03-29T01:49:46.367Z,100644.08
2019-03-29T01:52:17.161Z,100646.02
2019-03-29T01:54:48.685Z,100637.92
2019-03-29T01:57:19.422Z,100648.09
2019-03-29T01:59:50.218Z,100636.25
2019-03-29T02:02:21.106Z,100636.16
2019-03-29T02:04:52.220Z,100633.12
2019-03-29T02:07:22.968Z,100634.48
2019-03-29T02:09:53.754Z,100636.20
2019-03-29T02:12:24.536Z,100637.88
2019-03-29T02:14:56.468Z,100643.05
2019-03-29T02:17:27.210Z,100638.86
2019-03-29T02:19:58.358Z,100637.56
2019-03-29T02:22:30.220Z,100641.51
2019-03-29T02:25:00.990Z,100637.75
2019-03-29T02:27:31.784Z,100634.66
2019-03-29T02:30:04.372Z,100632.27
2019-03-29T02:32:35.399Z,100636.20
2019-03-29T02:35:06.385Z,100630.59
2019-03-29T02:37:37.174Z,100632.40
2019-03-29T02:40:08.168Z,100629.05
2019-03-29T02:42:38.937Z,100619.69
2019-03-29T02:45:09.789Z,100623.70
2019-03-29T02:47:40.533Z,100617.11
2019-03-29T02:50:11.799Z,100616.47
2019-03-29T02:52:42.735Z,100611.50
2019-03-29T02:55:13.929Z,100610.26
2019-03-29T02:57:44.671Z,100619.64
2019-03-29T03:00:15.775Z,100613.90
2019-03-29T03:02:46.612Z,100619.23
2019-03-29T03:05:17.441Z,100616.30
2019-03-29T03:07:48.181Z,100619.47
2019-03-29T03:10:19.044Z,100617.45
2019-03-29T03:12:49.880Z,100618.48
2019-03-29T03:15:20.656Z,100623.59
2019-03-29T03:17:51.424Z,100617.56
2019-03-29T03:20:22.328Z,100621.63
2019-03-29T03:22:53.230Z,100625.24
2019-03-29T03:25:23.986Z,100630.38
2019-03-29T03:27:54.705Z,100629.05
2019-03-29T03:30:25.491Z,100630.52
2019-03-29T03:32:56.319Z,100624.91
2019-03-29T03:35:27.124Z,100625.80
2019-03-29T03:37:57.842Z,100627.08
2019-03-29T03:40:28.607Z,100630.46
2019-03-29T03:42:59.401Z,100626.09
2019-03-29T03:45:30.189Z,100622.25
2019-03-29T03:48:00.931Z,100616.84
2019-03-29T03:50:43.722Z,100618.95
2019-03-29T03:53:14.584Z,100618.82
2019-03-29T03:55:46.446Z,100623.80
2019-03-29T03:58:19.622Z,100618.47
2019-03-29T04:00:58.175Z,100623.45
2019-03-29T04:03:28.984Z,100624.30
2019-03-29T04:05:59.780Z,100618.27
2019-03-29T04:08:30.548Z,100619.84
2019-03-29T04:11:01.338Z,100613.47
2019-03-29T04:13:32.162Z,100623.23
2019-03-29T04:16:03.070Z,100620.23
2019-03-29T04:18:33.795Z,100621.22
2019-03-29T04:21:04.789Z,100626.56
2019-03-29T04:23:35.625Z,100625.28
2019-03-29T04:26:06.395Z,100615.47
2019-03-29T04:28:38.209Z,100621.98
2019-03-29T04:31:09.028Z,100625.73
2019-03-29T04:33:39.789Z,100618.15
2019-03-29T04:36:10.865Z,100617.56
2019-03-29T04:38:41.620Z,100612.47
2019-03-29T04:41:12.398Z,100616.81
2019-03-29T04:43:43.164Z,100617.88
2019-03-29T04:46:14.002Z,100615.28
2019-03-29T04:48:44.736Z,100622.36
2019-03-29T04:51:15.542Z,100618.28
2019-03-29T04:53:46.374Z,100618.00
2019-03-29T04:56:17.283Z,100622.40
2019-03-29T04:58:48.082Z,100626.98
2019-03-29T05:01:18.823Z,100633.28
2019-03-29T05:03:49.610Z,100630.27
2019-03-29T05:06:20.422Z,100636.78
2019-03-29T05:08:51.291Z,100631.61
2019-03-29T05:11:22.012Z,100633.28
2019-03-29T05:13:52.829Z,100637.77
2019-03-29T05:16:23.646Z,100638.76
2019-03-29T05:18:54.457Z,100631.03
2019-03-29T05:21:25.226Z,100627.30
2019-03-29T05:23:56.132Z,100633.10
2019-03-29T05:26:26.902Z,100633.27
2019-03-29T05:28:57.688Z,100645.84
2019-03-29T05:31:28.511Z,100643.45
2019-03-29T05:33:59.255Z,100639.58
2019-03-29T05:36:30.175Z,100633.55
2019-03-29T05:39:01.032Z,100631.95
2019-03-29T05:41:33.633Z,100643.72
2019-03-29T05:44:04.336Z,100649.42
2019-03-29T05:46:35.147Z,100646.64
2019-03-29T05:49:05.998Z,100644.94
2019-03-29T05:51:37.015Z,100649.25
2019-03-29T05:54:07.759Z,100648.95
2019-03-29T05:56:38.983Z,100648.08
2019-03-29T05:59:09.711Z,100642.58
2019-03-29T06:01:40.565Z,100642.62
2019-03-29T06:04:11.321Z,100648.03
2019-03-29T06:06:42.375Z,100649.58
2019-03-29T06:09:13.165Z,100649.41
2019-03-29T06:11:44.038Z,100650.32
2019-03-29T06:14:14.807Z,100644.91
2019-03-29T06:16:45.632Z,100651.66
2019-03-29T06:19:16.519Z,100650.43
2019-03-29T06:21:47.478Z,100647.72
2019-03-29T06:24:18.317Z,100644.94
2019-03-29T06:26:49.132Z,100643.53
2019-03-29T06:29:19.859Z,100629.70
2019-03-29T06:31:50.778Z,100636.20
2019-03-29T06:34:21.511Z,100624.70
2019-03-29T06:36:53.911Z,100628.75
2019-03-29T06:39:26.773Z,100630.50
2019-03-29T06:41:57.638Z,100635.88
2019-03-29T06:44:31.005Z,100627.44
2019-03-29T06:47:04.126Z,100628.44
2019-03-29T06:49:35.325Z,100630.88
2019-03-29T06:52:06.508Z,100638.17
2019-03-29T06:54:37.357Z,100640.95
2019-03-29T06:57:19.378Z,100639.33
2019-03-29T07:00:00.500Z,100640.95
2019-03-29T07:02:54.278Z,100630.17
2019-03-29T07:05:59.553Z,100633.75
2019-03-29T07:08:45.702Z,100633.12
2019-03-29T07:11:21.195Z,100636.94
2019-03-29T07:13:57.871Z,100639.37
2019-03-29T07:16:25.076Z,100638.30
2019-03-29T07:18:55.881Z,100636.03
2019-03-29T07:21:32.965Z,100635.08
2019-03-29T07:24:03.952Z,100634.63
2019-03-29T07:26:34.799Z,100637.14
2019-03-29T07:29:05.724Z,100639.10
2019-03-29T07:31:36.585Z,100633.96
2019-03-29T07:34:07.479Z,100629.10
2019-03-29T07:36:38.779Z,100630.01
2019-03-29T07:39:09.574Z,100630.53
2019-03-29T07:41:44.514Z,100633.05
2019-03-29T07:44:16.431Z,100638.22
2019-03-29T07:46:47.525Z,100633.66
2019-03-29T07:49:19.480Z,100633.36
2019-03-29T07:51:50.966Z,100637.11
2019-03-29T07:54:22.034Z,100630.79
2019-03-29T07:56:56.011Z,100634.61
2019-03-29T07:59:30.009Z,100627.25
2019-03-29T08:02:02.365Z,100633.78
2019-03-29T08:04:34.348Z,100633.61
2019-03-29T08:07:06.284Z,100626.05
2019-03-29T08:09:37.533Z,100630.66
2019-03-29T08:12:16.518Z,100631.28
2019-03-29T08:14:48.347Z,100641.13
2019-03-29T08:17:27.834Z,100634.58
2019-03-29T08:20:37.362Z,100636.13
2019-03-29T08:22:46.371Z,100633.84
2019-03-29T08:25:25.874Z,100629.62
2019-03-29T08:28:04.720Z,100638.00
2019-03-29T08:30:44.786Z,100633.68
2019-03-29T08:33:24.726Z,100630.28
2019-03-29T08:36:19.857Z,100629.77
2019-03-29T08:38:52.651Z,100624.38
2019-03-29T08:41:23.648Z,100629.45
2019-03-29T08:43:54.493Z,100628.42
2019-03-29T08:46:25.318Z,100622.20
2019-03-29T08:48:56.537Z,100609.55
2019-03-29T08:51:27.331Z,100621.56
2019-03-29T08:53:59.038Z,100615.03
2019-03-29T08:56:30.066Z,100626.28
2019-03-29T08:59:04.653Z,100616.34
2019-03-29T09:01:35.968Z,100616.92
2019-03-29T09:04:06.823Z,100620.93
2019-03-29T09:06:37.681Z,100629.16
2019-03-29T09:09:11.860Z,100625.42
2019-03-29T09:11:41.690Z,100628.55
2019-03-29T09:14:12.472Z,100625.70
2019-03-29T09:16:43.336Z,100622.91
2019-03-29T09:19:16.546Z,100622.65
2019-03-29T09:21:47.302Z,100626.70
2019-03-29T09:24:22.223Z,100622.48
2019-03-29T09:26:50.602Z,100617.20
2019-03-29T09:29:22.741Z,100619.05
2019-03-29T09:31:53.555Z,100623.84
2019-03-29T09:34:24.426Z,100623.84
2019-03-29T09:36:59.896Z,100622.45
2019-03-29T09:39:32.749Z,100617.98
2019-03-29T09:42:04.142Z,100616.91
2019-03-29T09:44:34.979Z,100612.93
2019-03-29T09:47:05.759Z,100611.83
2019-03-29T09:49:36.677Z,100614.79
2019-03-29T09:52:07.437Z,100616.39
2019-03-29T09:54:38.198Z,100612.92
2019-03-29T09:57:10.143Z,100608.91
2019-03-29T09:59:41.937Z,100613.73
2019-03-29T10:02:13.093Z,100607.58
2019-03-29T10:04:43.838Z,100601.95
2019-03-29T10:07:14.675Z,100603.28
2019-03-29T10:09:45.490Z,100607.83
2019-03-29T10:12:17.014Z,100601.41
2019-03-29T10:14:51.283Z,100597.66
2019-03-29T10:17:22.569Z,100605.69
2019-03-29T10:19:53.417Z,100598.22
2019-03-29T10:22:24.200Z,100597.13
2019-03-29T10:24:55.219Z,100607.57
2019-03-29T10:27:26.098Z,100601.98
2019-03-29T10:29:58.190Z,100611.05
2019-03-29T10:32:29.028Z,100605.69
2019-03-29T10:35:00.015Z,100603.86
2019-03-29T10:37:30.875Z,100599.59
2019-03-29T10:40:01.799Z,100587.02
2019-03-29T10:42:32.711Z,100589.69
2019-03-29T10:45:03.820Z,100588.90
2019-03-29T10:47:43.629Z,100584.33
2019-03-29T10:50:07.842Z,100584.64
2019-03-29T10:52:40.982Z,100580.63
2019-03-29T10:55:13.549Z,100579.00
2019-03-29T10:57:47.202Z,100581.39
2019-03-29T11:00:25.784Z,100572.56
2019-03-29T11:02:56.946Z,100567.53
2019-03-29T11:05:27.734Z,100565.38
2019-03-29T11:07:58.551Z,100562.70
2019-03-29T11:10:34.491Z,100563.22
2019-03-29T11:13:13.017Z,100559.22
2019-03-29T11:15:39.402Z,100557.87
2019-03-29T11:18:10.287Z,100562.45
2019-03-29T11:20:41.148Z,100560.34
2019-03-29T11:23:11.917Z,100561.64
2019-03-29T11:25:48.264Z,100550.13
2019-03-29T11:28:17.315Z,100545.29
2019-03-29T11:30:49.152Z,100548.56
2019-03-29T11:33:20.012Z,100538.37
2019-03-29T11:35:50.724Z,100527.45
2019-03-29T11:38:21.579Z,100531.86
2019-03-29T11:40:52.361Z,100521.36
2019-03-29T11:43:27.088Z,100520.66
2019-03-29T11:45:55.966Z,100515.21
2019-03-29T11:48:29.563Z,100508.62
2019-03-29T11:50:59.650Z,100512.88
2019-03-29T11:53:30.437Z,100506.53
2019-03-29T11:56:01.199Z,100503.23
2019-03-29T11:58:32.107Z,100499.17
2019-03-29T12:01:05.494Z,100489.23
2019-03-29T12:03:35.913Z,100492.78
2019-03-29T12:06:06.745Z,100488.24
2019-03-29T12:08:37.653Z,100477.33
2019-03-29T12:11:12.224Z,100474.31
2019-03-29T12:13:43.585Z,100477.61
2019-03-29T12:16:14.829Z,100466.73
2019-03-29T12:18:45.664Z,100463.27
2019-03-29T12:21:16.630Z,100464.23
2019-03-29T12:23:47.534Z,100458.13
2019-03-29T12:26:18.279Z,100453.83
2019-03-29T12:28:49.304Z,100448.84
2019-03-29T12:31:20.122Z,100446.76
2019-03-29T12:33:50.886Z,100436.84
2019-03-29T12:36:21.624Z,100441.24
2019-03-29T12:38:52.431Z,100440.71
2019-03-29T12:41:29.545Z,100432.28
2019-03-29T12:44:08.852Z,100423.64
2019-03-29T12:46:45.798Z,100428.23
2019-03-29T12:49:26.257Z,100422.58
2019-03-29T12:52:05.507Z,100416.91
2019-03-29T12:54:45.061Z,100409.84
2019-03-29T12:57:22.985Z,100405.77
2019-03-29T13:00:02.533Z,100405.03
2019-03-29T13:02:43.514Z,100408.00
2019-03-29T13:05:22.377Z,100404.14
2019-03-29T13:08:03.810Z,100401.50
2019-03-29T13:10:44.754Z,100394.77
2019-03-29T13:13:22.703Z,100391.75
2019-03-29T13:15:55.658Z,100390.70
2019-03-29T13:18:26.484Z,100391.45
2019-03-29T13:20:57.487Z,100386.97
2019-03-29T13:23:28.232Z,100380.02
2019-03-29T13:26:03.384Z,100375.47
2019-03-29T13:28:35.632Z,100371.55
2019-03-29T13:31:07.139Z,100365.11
2019-03-29T13:33:42.954Z,100350.97
2019-03-29T13:36:20.854Z,100349.13
2019-03-29T13:38:59.026Z,100343.91
2019-03-29T13:41:40.032Z,100339.38
2019-03-29T13:44:24.482Z,100337.88
2019-03-29T13:47:03.024Z,100334.09
2019-03-29T13:49:47.242Z,100334.86
2019-03-29T13:52:27.117Z,100328.94
2019-03-29T13:55:04.857Z,100332.11
2019-03-29T13:57:36.821Z,100323.70
2019-03-29T14:00:11.017Z,100321.75
2019-03-29T14:02:42.915Z,100312.36
2019-03-29T14:05:13.826Z,100307.32
2019-03-29T14:07:46.543Z,100305.18
2019-03-29T14:10:17.324Z,100303.70
2019-03-29T14:12:48.132Z,100298.65
2019-03-29T14:15:19.600Z,100297.31
2019-03-29T14:17:50.833Z,100301.80
2019-03-29T14:20:32.118Z,100297.87
2019-03-29T14:23:03.989Z,100286.08
2019-03-29T14:25:34.793Z,100285.81
2019-03-29T14:28:05.855Z,100285.16
2019-03-29T14:30:37.154Z,100280.17
2019-03-29T14:33:08.260Z,100280.44
2019-03-29T14:35:39.488Z,100277.16
2019-03-29T14:38:10.610Z,100272.17
2019-03-29T14:40:42.843Z,100273.84
2019-03-29T14:43:13.733Z,100269.62
2019-03-29T14:45:44.877Z,100266.86
2019-03-29T14:48:16.780Z,100263.67
2019-03-29T14:50:47.992Z,100257.17
2019-03-29T14:53:18.806Z,100253.67
2019-03-29T14:55:49.724Z,100254.52
2019-03-29T14:58:21.108Z,100243.45
2019-03-29T15:00:51.833Z,100246.83
2019-03-29T15:03:22.781Z,100231.09
2019-03-29T15:05:53.667Z,100235.91
2019-03-29T15:08:25.417Z,100234.13
2019-03-29T15:10:56.182Z,100225.97
2019-03-29T15:13:28.378Z,100226.08
2019-03-29T15:15:59.480Z,100225.02
2019-03-29T15:18:30.490Z,100223.09
2019-03-29T15:21:01.449Z,100221.25
2019-03-29T15:23:32.474Z,100227.92
2019-03-29T15:26:05.604Z,100218.04
2019-03-29T15:28:37.597Z,100217.72
2019-03-29T15:31:08.650Z,100212.21
2019-03-29T15:33:39.656Z,100205.66
2019-03-29T15:36:11.642Z,100209.98
2019-03-29T15:38:42.454Z,100201.14
2019-03-29T15:41:13.219Z,100197.48
2019-03-29T15:43:44.259Z,100194.69
2019-03-29T15:46:16.075Z,100194.28
2019-03-29T15:48:48.296Z,100184.72
2019-03-29T15:51:19.203Z,100192.91
2019-03-29T15:53:50.032Z,100192.41
2019-03-29T15:56:20.793Z,100189.19
2019-03-29T15:58:53.879Z,100188.06
2019-03-29T16:01:24.705Z,100189.61
2019-03-29T16:03:55.755Z,100190.80
2019-03-29T16:06:26.557Z,100188.38
2019-03-29T16:08:57.738Z,100193.13
2019-03-29T16:11:28.611Z,100194.89
2019-03-29T16:13:59.516Z,100191.71
2019-03-29T16:16:30.364Z,100186.95
2019-03-29T16:19:01.433Z,100186.78
2019-03-29T16:21:32.283Z,100180.80
2019-03-29T16:24:03.126Z,100178.95
2019-03-29T16:26:33.936Z,100176.66
2019-03-29T16:29:04.913Z,100172.13
2019-03-29T16:31:36.005Z,100172.72
2019-03-29T16:34:07.057Z,100163.12
2019-03-29T16:36:38.894Z,100160.66
2019-03-29T16:39:09.740Z,100163.20
2019-03-29T16:41:40.582Z,100160.20
2019-03-29T16:44:11.491Z,100156.30
2019-03-29T16:46:43.534Z,100162.39
2019-03-29T16:49:14.375Z,100158.36
2019-03-29T16:51:45.139Z,100144.97
2019-03-29T16:54:16.003Z,100148.59
2019-03-29T16:56:47.210Z,100144.88
2019-03-29T16:59:18.031Z,100139.77
2019-03-29T17:01:51.264Z,100141.35
2019-03-29T17:04:21.572Z,100140.14
2019-03-29T17:06:52.354Z,100133.82
2019-03-29T17:09:23.265Z,100136.19
2019-03-29T17:11:54.064Z,100131.84
2019-03-29T17:14:24.946Z,100134.14
2019-03-29T17:16:55.718Z,100130.94
2019-03-29T17:19:26.562Z,100138.30
2019-03-29T17:21:57.375Z,100135.94
2019-03-29T17:24:28.297Z,100129.36
2019-03-29T17:26:59.053Z,100129.13
2019-03-29T17:29:29.818Z,100124.95
2019-03-29T17:32:01.008Z,100125.98
2019-03-29T17:34:32.426Z,100130.17
2019-03-29T17:37:03.269Z,100131.57
2019-03-29T17:39:34.185Z,100133.70
2019-03-29T17:42:05.039Z,100138.52
2019-03-29T17:44:35.980Z,100136.52
2019-03-29T17:47:06.790Z,100135.55
2019-03-29T17:49:37.635Z,100145.37
2019-03-29T17:52:08.452Z,100140.86
2019-03-29T17:54:39.368Z,100136.10
2019-03-29T17:57:10.110Z,100137.48
2019-03-29T17:59:40.931Z,100136.38
2019-03-29T18:02:11.780Z,100141.46
2019-03-29T18:04:42.908Z,100137.95
2019-03-29T18:07:13.675Z,100138.45
2019-03-29T18:09:44.738Z,100138.70
2019-03-29T18:12:16.070Z,100140.05
2019-03-29T18:14:46.961Z,100142.20
2019-03-29T18:17:17.734Z,100146.87
2019-03-29T18:19:48.673Z,100153.28
2019-03-29T18:22:19.516Z,100155.94
2019-03-29T18:24:50.367Z,100146.09
2019-03-29T18:27:21.143Z,100146.89
2019-03-29T18:29:51.924Z,100146.08
2019-03-29T18:32:23.960Z,100148.50
2019-03-29T18:34:55.299Z,100150.08
2019-03-29T18:37:26.212Z,100147.41
2019-03-29T18:39:57.106Z,100142.09
2019-03-29T18:42:27.818Z,100146.10
2019-03-29T18:44:58.691Z,100139.19
2019-03-29T18:47:29.552Z,100143.41
2019-03-29T18:50:00.466Z,100138.37
2019-03-29T18:52:31.269Z,100134.09
2019-03-29T18:55:02.103Z,100131.97
2019-03-29T18:57:32.906Z,100133.30
2019-03-29T19:00:03.833Z,100132.52
2019-03-29T19:02:34.958Z,100133.82
2019-03-29T19:05:06.408Z,100127.12
2019-03-29T19:07:37.527Z,100131.58
2019-03-29T19:10:08.553Z,100130.22
2019-03-29T19:12:39.313Z,100128.90
2019-03-29T19:15:29.735Z,100127.30
2019-03-29T19:18:07.027Z,100131.15
2019-03-29T19:20:37.941Z,100130.20
2019-03-29T19:23:08.778Z,100125.41
2019-03-29T19:25:39.634Z,100126.06
2019-03-29T19:28:10.517Z,100126.66
2019-03-29T19:30:41.295Z,100125.93
2019-03-29T19:33:12.040Z,100119.25
2019-03-29T19:35:42.997Z,100116.93
2019-03-29T19:38:13.846Z,100120.49
2019-03-29T19:40:44.611Z,100127.89
2019-03-29T19:43:15.505Z,100125.45
2019-03-29T19:45:46.258Z,100123.97
2019-03-29T19:48:17.058Z,100121.25
2019-03-29T19:50:48.053Z,100121.38
2019-03-29T19:53:18.899Z,100118.91
2019-03-29T19:56:01.902Z,100120.25
2019-03-29T19:58:48.475Z,100122.14
2019-03-29T20:04:09.775Z,100122.45
2019-03-29T20:06:41.011Z,100125.83
2019-03-29T20:09:11.833Z,100128.75
2019-03-29T20:11:42.918Z,100126.53
2019-03-29T20:14:13.678Z,100129.13
2019-03-29T20:16:44.464Z,100126.55
2019-03-29T20:19:15.270Z,100130.50
2019-03-29T20:21:46.208Z,100128.63
2019-03-29T20:24:16.934Z,100128.00
2019-03-29T20:26:47.748Z,100123.36
2019-03-29T20:29:18.570Z,100123.31
2019-03-29T20:31:50.687Z,100118.03
2019-03-29T20:34:22.602Z,100117.44
2019-03-29T20:36:53.575Z,100110.42
2019-03-29T20:39:24.534Z,100114.87
2019-03-29T20:41:58.983Z,100114.72
2019-03-29T20:44:29.763Z,100108.00
2019-03-29T20:47:04.419Z,100104.67
2019-03-29T20:49:35.565Z,100103.44
2019-03-29T20:52:06.547Z,100097.72
2019-03-29T20:54:37.299Z,100102.86
2019-03-29T20:57:08.069Z,100101.11
2019-03-29T20:59:38.888Z,100098.46
2019-03-29T21:02:09.649Z,100093.06
2019-03-29T21:04:40.392Z,100091.91
2019-03-29T21:07:11.865Z,100094.06
2019-03-29T21:09:42.660Z,100091.28
2019-03-29T21:12:21.385Z,100084.95
2019-03-29T21:14:53.364Z,100085.64
2019-03-29T21:17:24.154Z,100092.69
2019-03-29T21:19:55.715Z,100080.25
2019-03-29T21:22:27.650Z,100086.12
2019-03-29T21:24:58.404Z,100081.80
2019-03-29T21:27:29.961Z,100074.83
2019-03-29T21:30:00.808Z,100076.55
2019-03-29T21:32:31.686Z,100078.44
2019-03-29T21:35:02.416Z,100082.95
2019-03-29T21:37:33.195Z,100079.97
2019-03-29T21:40:04.242Z,100077.84
2019-03-29T21:42:35.008Z,100079.97
2019-03-29T21:45:06.409Z,100076.56
2019-03-29T21:47:37.382Z,100076.05
2019-03-29T21:50:09.290Z,100074.60
2019-03-29T21:52:40.266Z,100077.08
2019-03-29T21:55:11.076Z,100077.77
2019-03-29T21:57:42.148Z,100084.12
2019-03-29T22:00:13.636Z,100081.16
2019-03-29T22:02:45.060Z,100082.84
2019-03-29T22:05:15.797Z,100080.50
2019-03-29T22:07:47.169Z,100074.92
2019-03-29T22:10:18.017Z,100072.23
2019-03-29T22:12:48.917Z,100068.73
2019-03-29T22:15:19.757Z,100063.94
2019-03-29T22:17:50.500Z,100055.70
2019-03-29T22:20:21.288Z,100058.54
2019-03-29T22:22:52.194Z,100050.94
2019-03-29T22:25:22.939Z,100045.13
2019-03-29T22:27:53.712Z,100051.98
2019-03-29T22:30:24.545Z,100051.89
2019-03-29T22:32:55.488Z,100057.73
2019-03-29T22:35:26.208Z,100045.38
2019-03-29T22:37:57.093Z,100039.66
2019-03-29T22:40:27.875Z,100037.83
2019-03-29T22:42:58.647Z,100036.00
2019-03-29T22:45:29.393Z,100038.27
2019-03-29T22:48:00.254Z,100040.48
2019-03-29T22:50:31.074Z,100044.34
2019-03-29T22:53:01.890Z,100039.88
2019-03-29T22:55:32.632Z,100039.52
2019-03-29T22:58:03.388Z,100040.38
2019-03-29T23:00:37.543Z,100044.44
2019-03-29T23:03:10.061Z,100041.59
2019-03-29T23:05:40.791Z,100043.83
2019-03-29T23:08:11.562Z,100039.91
2019-03-29T23:10:42.348Z,100039.59
2019-03-29T23:13:13.583Z,100036.20
2019-03-29T23:15:44.325Z,100035.70
2019-03-29T23:18:15.066Z,100041.26
2019-03-29T23:20:45.861Z,100039.83
2019-03-29T23:23:16.795Z,100035.33
2019-03-29T23:25:48.148Z,100035.45
2019-03-29T23:28:18.993Z,100033.26
2019-03-29T23:30:49.851Z,100033.38
2019-03-29T23:33:20.700Z,100026.08
2019-03-29T23:35:51.521Z,100024.25
2019-03-29T23:38:22.511Z,100026.15
2019-03-29T23:40:53.301Z,100023.27
2019-03-29T23:43:24.148Z,100022.95
2019-03-29T23:45:54.970Z,100023.17
2019-03-29T23:48:25.827Z,100027.02
2019-03-29T23:50:56.626Z,100029.30
2019-03-29T23:53:27.614Z,100023.05
2019-03-29T23:55:58.324Z,100014.36
2019-03-29T23:58:29.123Z,100018.11
